createdAt,value
2023-04-02T00:00:12.542Z,0.20
2023-04-02T00:02:58.698Z,0.38
2023-04-02T00:05:31.428Z,0.30
2023-04-02T00:07:59.764Z,0.30
2023-04-02T00:10:35.083Z,0.40
2023-04-02T00:13:12.217Z,0.30
2023-04-02T00:15:40.896Z,0.28
2023-04-02T00:18:10.024Z,0.25
2023-04-02T00:20:38.699Z,0.20
2023-04-02T00:23:06.383Z,0.40
2023-04-02T00:25:36.829Z,0.30
2023-04-02T00:28:04.863Z,0.30
2023-04-02T00:30:31.904Z,0.40
2023-04-02T00:32:59.341Z,0.30
2023-04-02T00:35:28.837Z,0.30
2023-04-02T00:37:56.728Z,0.32
2023-04-02T00:40:29.175Z,0.40
2023-04-02T00:42:58.598Z,0.30
2023-04-02T00:45:30.364Z,0.30
2023-04-02T00:47:58.835Z,0.40
2023-04-02T00:50:34.944Z,0.30
2023-04-02T00:53:08.760Z,0.30
2023-04-02T00:55:40.530Z,0.30
2023-04-02T00:58:27.321Z,0.30
2023-04-02T01:00:54.557Z,0.20
2023-04-02T01:03:22.919Z,0.30
2023-04-02T01:05:52.322Z,0.30
2023-04-02T01:08:31.797Z,0.30
2023-04-02T01:11:30.838Z,0.35
2023-04-02T01:14:06.677Z,0.30
2023-04-02T01:16:46.664Z,0.30
2023-04-02T01:19:19.500Z,0.40
2023-04-02T01:22:01.461Z,0.40
2023-04-02T01:24:33.045Z,0.30
2023-04-02T01:27:02.213Z,0.32
2023-04-02T01:29:38.572Z,0.35
2023-04-02T01:32:12.645Z,0.40
2023-04-02T01:34:44.726Z,0.40
2023-04-02T01:37:23.333Z,0.30
2023-04-02T01:39:59.503Z,0.30
2023-04-02T01:42:45.287Z,0.30
2023-04-02T01:45:15.070Z,0.40
2023-04-02T01:47:43.469Z,0.30
2023-04-02T01:50:19.282Z,0.30
2023-04-02T01:52:51.355Z,0.30
2023-04-02T01:55:21.979Z,0.40
2023-04-02T01:57:51.313Z,0.30
2023-04-02T02:00:19.163Z,0.45
2023-04-02T02:02:50.701Z,0.30
2023-04-02T02:05:20.901Z,0.30
2023-04-02T02:07:49.394Z,0.30
2023-04-02T02:10:29.270Z,0.20
2023-04-02T02:12:59.319Z,0.40
2023-04-02T02:15:26.818Z,0.30
2023-04-02T02:18:01.005Z,0.30
2023-04-02T02:20:28.264Z,0.30
2023-04-02T02:22:56.578Z,0.40
2023-04-02T02:25:28.439Z,0.30
2023-04-02T02:28:16.798Z,0.40
2023-04-02T02:30:49.604Z,0.30
2023-04-02T02:33:25.515Z,0.30
2023-04-02T02:36:33.745Z,0.30
2023-04-02T02:39:13.460Z,0.40
2023-04-02T02:41:47.700Z,0.40
2023-04-02T02:44:14.405Z,0.30
2023-04-02T02:46:46.815Z,0.30
2023-04-02T02:49:17.837Z,0.30
2023-04-02T02:51:52.743Z,0.40
2023-04-02T02:54:27.860Z,0.40
2023-04-02T02:56:58.286Z,0.30
2023-04-02T02:59:26.356Z,0.47
2023-04-02T03:01:53.605Z,0.30
2023-04-02T03:04:22.865Z,0.38
2023-04-02T03:06:53.245Z,0.35
2023-04-02T03:09:39.514Z,0.38
2023-04-02T03:12:25.654Z,0.40
2023-04-02T03:15:21.388Z,0.30
2023-04-02T03:18:01.210Z,0.40
2023-04-02T03:20:37.293Z,0.30
2023-04-02T03:23:18.488Z,0.30
2023-04-02T03:25:57.938Z,0.32
2023-04-02T03:28:31.392Z,0.38
2023-04-02T03:31:16.839Z,0.40
2023-04-02T03:34:05.119Z,0.30
2023-04-02T03:36:43.741Z,0.30
2023-04-02T03:39:18.831Z,0.30
2023-04-02T03:41:55.238Z,0.40
2023-04-02T03:44:25.582Z,0.30
2023-04-02T03:46:57.697Z,0.32
2023-04-02T03:49:35.430Z,0.32
2023-04-02T03:54:38.521Z,0.40
2023-04-02T03:57:11.460Z,0.30
2023-04-02T03:59:43.633Z,0.30
2023-04-02T04:02:27.389Z,0.40
2023-04-02T04:04:54.930Z,0.32
2023-04-02T04:07:35.843Z,0.30
2023-04-02T04:10:03.510Z,0.30
2023-04-02T04:12:35.249Z,0.35
2023-04-02T04:15:13.660Z,0.30
2023-04-02T04:18:02.349Z,0.30
2023-04-02T04:20:46.123Z,0.30
2023-04-02T04:23:30.000Z,0.30
2023-04-02T04:25:59.258Z,0.30
2023-04-02T04:28:38.316Z,0.30
2023-04-02T04:31:21.163Z,0.30
2023-04-02T04:33:55.048Z,0.30
2023-04-02T04:36:31.033Z,0.30
2023-04-02T04:39:09.079Z,0.30
2023-04-02T04:41:38.923Z,0.30
2023-04-02T04:44:17.920Z,0.30
2023-04-02T04:46:49.438Z,0.30
2023-04-02T04:49:44.341Z,0.30
2023-04-02T04:52:29.097Z,0.30
2023-04-02T04:54:56.696Z,0.30
2023-04-02T04:57:29.650Z,0.35
2023-04-02T05:00:07.198Z,0.20
2023-04-02T05:03:03.473Z,0.30
2023-04-02T05:05:32.289Z,0.40
2023-04-02T05:08:25.848Z,0.20
2023-04-02T05:10:58.434Z,0.30
2023-04-02T05:13:31.651Z,0.30
2023-04-02T05:16:31.942Z,0.30
2023-04-02T05:19:11.373Z,0.35
2023-04-02T05:21:55.018Z,0.30
2023-04-02T05:24:52.142Z,0.30
2023-04-02T05:27:26.062Z,0.30
2023-04-02T05:29:59.859Z,0.35
2023-04-02T05:32:33.096Z,0.30
2023-04-02T05:35:00.577Z,0.30
2023-04-02T05:37:29.091Z,0.30
2023-04-02T05:39:58.966Z,0.30
2023-04-02T05:42:31.683Z,0.30
2023-04-02T05:45:13.608Z,0.40
2023-04-02T05:47:43.371Z,0.30
2023-04-02T05:50:27.348Z,0.40
2023-04-02T05:53:02.164Z,0.40
2023-04-02T05:55:58.301Z,0.32
2023-04-02T05:58:35.983Z,0.30
2023-04-02T06:01:33.697Z,0.40
2023-04-02T06:04:04.960Z,0.28
2023-04-02T06:06:39.957Z,0.40
2023-04-02T06:09:11.877Z,0.30
2023-04-02T06:11:42.907Z,0.30
2023-04-02T06:14:12.832Z,0.30
2023-04-02T06:16:40.551Z,0.32
2023-04-02T06:19:15.013Z,0.40
2023-04-02T06:21:46.435Z,0.43
2023-04-02T06:24:15.418Z,0.40
2023-04-02T06:26:45.599Z,0.40
2023-04-02T06:29:22.173Z,0.40
2023-04-02T06:31:52.461Z,0.50
2023-04-02T06:34:22.904Z,0.50
2023-04-02T06:37:04.393Z,0.40
2023-04-02T06:39:33.816Z,0.43
2023-04-02T06:42:20.706Z,0.50
2023-04-02T06:45:14.811Z,0.45
2023-04-02T06:47:47.356Z,0.40
2023-04-02T06:50:26.992Z,0.40
2023-04-02T06:52:58.260Z,0.40
2023-04-02T06:55:49.018Z,0.30
2023-04-02T06:58:21.216Z,0.30
2023-04-02T07:00:49.720Z,0.30
2023-04-02T07:03:27.626Z,0.50
2023-04-02T07:05:56.898Z,0.40
2023-04-02T07:08:24.200Z,0.40
2023-04-02T07:10:51.097Z,0.50
2023-04-02T07:13:20.633Z,0.40
2023-04-02T07:15:49.500Z,0.60
2023-04-02T07:18:30.826Z,0.40
2023-04-02T07:20:59.756Z,0.50
2023-04-02T07:23:27.678Z,0.40
2023-04-02T07:25:55.773Z,0.35
2023-04-02T07:28:23.156Z,0.40
2023-04-02T07:30:50.620Z,0.47
2023-04-02T07:33:20.578Z,0.40
2023-04-02T07:35:47.721Z,0.50
2023-04-02T07:38:14.415Z,0.43
2023-04-02T07:40:41.277Z,0.40
2023-04-02T07:43:08.098Z,0.50
2023-04-02T07:45:34.951Z,0.45
2023-04-02T07:48:08.773Z,0.40
2023-04-02T07:50:35.805Z,0.45
2023-04-02T07:53:02.700Z,0.40
2023-04-02T07:55:29.402Z,0.55
2023-04-02T07:57:58.331Z,0.57
2023-04-02T08:00:26.038Z,0.43
2023-04-02T08:02:53.553Z,0.40
2023-04-02T08:05:20.520Z,0.40
2023-04-02T08:07:55.544Z,0.40
2023-04-02T08:10:22.727Z,0.50
2023-04-02T08:12:49.805Z,0.50
2023-04-02T08:15:17.293Z,0.55
2023-04-02T08:17:44.608Z,0.60
2023-04-02T08:20:22.231Z,1.00
2023-04-02T08:22:49.869Z,0.80
2023-04-02T08:25:17.242Z,0.80
2023-04-02T08:27:47.035Z,1.17
2023-04-02T08:30:14.338Z,1.40
2023-04-02T08:32:43.934Z,1.83
2023-04-02T08:35:12.343Z,1.75
2023-04-02T08:37:39.061Z,1.90
2023-04-02T08:40:07.472Z,2.00
2023-04-02T08:42:41.493Z,1.98
2023-04-02T08:45:25.459Z,1.98
2023-04-02T08:47:56.244Z,2.05
2023-04-02T08:50:25.952Z,1.70
2023-04-02T08:52:52.789Z,1.98
2023-04-02T08:55:35.250Z,1.70
2023-04-02T08:58:09.639Z,1.92
2023-04-02T09:00:40.067Z,2.00
2023-04-02T09:03:15.986Z,1.80
2023-04-02T09:05:43.576Z,1.98
2023-04-02T09:08:24.591Z,2.20
2023-04-02T09:10:56.455Z,1.98
2023-04-02T09:13:25.730Z,1.95
2023-04-02T09:16:06.618Z,1.70
2023-04-02T09:18:33.662Z,1.58
2023-04-02T09:21:28.632Z,1.30
2023-04-02T09:23:55.952Z,1.30
2023-04-02T09:26:25.379Z,1.27
2023-04-02T09:28:53.260Z,1.00
2023-04-02T09:31:22.963Z,1.17
2023-04-02T09:33:51.538Z,1.05
2023-04-02T09:36:38.965Z,1.15
2023-04-02T09:39:19.252Z,1.13
2023-04-02T09:41:55.835Z,1.00
2023-04-02T09:44:31.637Z,0.90
2023-04-02T09:47:03.970Z,1.58
2023-04-02T09:49:38.891Z,1.20
2023-04-02T09:52:07.632Z,1.30
2023-04-02T09:54:41.448Z,0.95
2023-04-02T09:57:28.098Z,0.80
2023-04-02T10:00:32.142Z,1.20
2023-04-02T10:03:07.044Z,0.80
2023-04-02T10:05:40.766Z,0.85
2023-04-02T10:08:18.113Z,0.82
2023-04-02T10:10:48.741Z,0.90
2023-04-02T10:13:35.937Z,0.85
2023-04-02T10:16:26.494Z,3.30
2023-04-02T10:18:58.386Z,1.63
2023-04-02T10:21:31.374Z,1.10
2023-04-02T10:23:59.659Z,0.93
2023-04-02T10:26:47.814Z,0.82
2023-04-02T10:29:33.265Z,0.75
2023-04-02T10:32:05.700Z,0.73
2023-04-02T10:34:44.454Z,0.60
2023-04-02T10:37:45.713Z,0.70
2023-04-02T10:40:24.284Z,0.70
2023-04-02T10:43:07.244Z,0.80
2023-04-02T10:45:42.967Z,0.60
2023-04-02T10:48:30.705Z,0.70
2023-04-02T10:51:28.954Z,0.60
2023-04-02T10:54:04.874Z,0.50
2023-04-02T10:56:44.221Z,0.50
2023-04-02T10:59:24.944Z,0.55
2023-04-02T11:01:53.699Z,0.60
2023-04-02T11:04:25.380Z,0.50
2023-04-02T11:07:07.151Z,0.50
2023-04-02T11:09:42.325Z,0.50
2023-04-02T11:12:22.006Z,0.55
2023-04-02T11:14:49.739Z,0.60
2023-04-02T11:17:19.366Z,0.50
2023-04-02T11:19:46.202Z,0.50
2023-04-02T11:22:25.749Z,0.60
2023-04-02T11:24:54.619Z,0.70
2023-04-02T11:27:29.865Z,0.75
2023-04-02T11:30:06.129Z,0.52
2023-04-02T11:32:43.236Z,0.75
2023-04-02T11:35:31.555Z,0.80
2023-04-02T11:38:44.924Z,0.73
2023-04-02T11:41:11.744Z,0.80
2023-04-02T11:43:38.349Z,0.70
2023-04-02T11:46:26.412Z,1.00
2023-04-02T11:48:55.194Z,0.70
2023-04-02T11:51:24.705Z,1.00
2023-04-02T11:53:55.050Z,0.90
2023-04-02T11:56:43.797Z,1.00
2023-04-02T11:59:23.090Z,1.40
2023-04-02T12:02:23.859Z,1.48
2023-04-02T12:04:53.355Z,0.95
2023-04-02T12:07:35.231Z,1.00
2023-04-02T12:10:18.095Z,0.80
2023-04-02T12:12:44.817Z,0.80
2023-04-02T12:15:42.107Z,0.95
2023-04-02T12:18:14.871Z,0.55
2023-04-02T12:20:42.831Z,0.70
2023-04-02T12:23:21.341Z,0.90
2023-04-02T12:25:58.622Z,0.80
2023-04-02T12:28:29.006Z,0.70
2023-04-02T12:31:21.260Z,0.73
2023-04-02T12:33:52.005Z,0.70
2023-04-02T12:36:22.983Z,0.70
2023-04-02T12:38:54.947Z,0.73
2023-04-02T12:41:27.328Z,0.73
2023-04-02T12:44:02.105Z,0.77
2023-04-02T12:46:29.988Z,0.88
2023-04-02T12:49:05.295Z,1.50
2023-04-02T12:51:32.596Z,2.00
2023-04-02T12:53:59.454Z,2.10
2023-04-02T12:56:26.176Z,2.50
2023-04-02T12:58:57.967Z,3.90
2023-04-02T13:01:33.998Z,5.15
2023-04-02T13:04:00.943Z,4.53
2023-04-02T13:06:28.119Z,5.72
2023-04-02T13:08:55.128Z,4.47
2023-04-02T13:11:22.732Z,3.13
2023-04-02T13:13:50.365Z,2.53
2023-04-02T13:16:20.037Z,2.40
2023-04-02T13:18:48.506Z,2.10
2023-04-02T13:21:15.406Z,1.70
2023-04-02T13:23:42.618Z,1.40
2023-04-02T13:26:18.591Z,1.20
2023-04-02T13:29:09.366Z,1.40
2023-04-02T13:31:36.160Z,1.17
2023-04-02T13:34:02.852Z,1.20
2023-04-02T13:36:29.766Z,1.20
2023-04-02T13:38:56.830Z,1.02
2023-04-02T13:41:35.320Z,1.10
2023-04-02T13:44:03.410Z,1.00
2023-04-02T13:46:32.696Z,0.93
2023-04-02T13:48:59.635Z,1.05
2023-04-02T13:51:38.204Z,1.20
2023-04-02T13:54:09.652Z,1.10
2023-04-02T13:56:37.222Z,1.25
2023-04-02T13:59:04.056Z,1.30
2023-04-02T14:01:31.346Z,1.20
2023-04-02T14:03:58.250Z,1.20
2023-04-02T14:07:15.858Z,1.15
2023-04-02T14:09:55.935Z,1.10
2023-04-02T14:12:31.509Z,1.10
2023-04-02T14:15:06.617Z,1.20
2023-04-02T14:17:36.334Z,1.20
2023-04-02T14:20:21.766Z,1.30
2023-04-02T14:22:51.301Z,1.25
2023-04-02T14:25:49.473Z,1.30
2023-04-02T14:28:50.705Z,1.23
2023-04-02T14:31:20.652Z,1.08
2023-04-02T14:34:02.926Z,1.15
2023-04-02T14:36:46.069Z,1.33
2023-04-02T14:39:18.884Z,1.00
2023-04-02T14:42:05.824Z,1.30
2023-04-02T14:44:37.444Z,1.00
2023-04-02T14:47:37.656Z,1.30
2023-04-02T14:50:17.380Z,1.30
2023-04-02T14:52:46.059Z,1.20
2023-04-02T14:55:26.831Z,1.20
2023-04-02T14:57:53.861Z,1.55
2023-04-02T15:00:27.950Z,1.40
2023-04-02T15:03:10.141Z,1.60
2023-04-02T15:05:46.349Z,1.63
2023-04-02T15:08:37.860Z,1.65
2023-04-02T15:11:08.215Z,1.70
2023-04-02T15:13:39.979Z,1.65
2023-04-02T15:16:22.789Z,1.38
2023-04-02T15:18:55.705Z,1.83
2023-04-02T15:21:35.469Z,1.60
2023-04-02T15:24:23.787Z,1.70
2023-04-02T15:26:50.630Z,1.77
2023-04-02T15:29:32.497Z,1.80
2023-04-02T15:32:17.591Z,1.58
2023-04-02T15:34:57.933Z,1.67
2023-04-02T15:37:35.693Z,1.70
2023-04-02T15:40:20.697Z,1.88
2023-04-02T15:42:56.940Z,1.90
2023-04-02T15:45:33.337Z,1.67
2023-04-02T15:48:07.224Z,1.70
2023-04-02T15:50:40.964Z,1.98
2023-04-02T15:53:32.246Z,1.80
2023-04-02T15:56:13.938Z,1.73
2023-04-02T15:59:02.435Z,1.75
2023-04-02T16:01:56.898Z,1.73
2023-04-02T16:04:42.039Z,1.50
2023-04-02T16:10:15.530Z,1.70
2023-04-02T16:12:42.177Z,1.65
2023-04-02T16:15:18.442Z,1.60
2023-04-02T16:17:47.075Z,1.70
2023-04-02T16:20:22.718Z,2.00
2023-04-02T16:23:02.929Z,2.08
2023-04-02T16:25:39.376Z,1.80
2023-04-02T16:28:25.427Z,1.70
2023-04-02T16:31:14.589Z,2.00
2023-04-02T16:33:59.755Z,1.75
2023-04-02T16:39:05.739Z,1.60
2023-04-02T16:41:51.405Z,1.90
2023-04-02T16:45:02.339Z,1.77
2023-04-02T16:47:32.297Z,1.73
2023-04-02T16:50:51.114Z,1.90
2023-04-02T16:53:27.065Z,1.80
2023-04-02T16:56:24.353Z,1.85
2023-04-02T16:59:17.559Z,1.95
2023-04-02T17:02:04.081Z,1.52
2023-04-02T17:04:48.994Z,1.80
2023-04-02T17:07:27.917Z,1.90
2023-04-02T17:10:02.831Z,1.90
2023-04-02T17:15:26.753Z,1.70
2023-04-02T17:17:58.319Z,1.90
2023-04-02T17:20:26.078Z,1.70
2023-04-02T17:22:53.253Z,1.83
2023-04-02T17:25:28.884Z,1.80
2023-04-02T17:27:56.303Z,1.70
2023-04-02T17:30:39.427Z,1.98
2023-04-02T17:33:16.811Z,1.80
2023-04-02T17:35:43.524Z,1.70
2023-04-02T17:38:54.625Z,1.65
2023-04-02T17:41:26.091Z,1.90
2023-04-02T17:44:06.718Z,1.90
2023-04-02T17:46:43.509Z,1.70
2023-04-02T17:49:23.069Z,1.60
2023-04-02T17:51:57.700Z,1.80
2023-04-02T17:54:30.963Z,1.88
2023-04-02T17:57:12.412Z,1.90
2023-04-02T18:00:10.378Z,1.92
2023-04-02T18:03:31.389Z,1.75
2023-04-02T18:06:06.608Z,1.70
2023-04-02T18:09:08.069Z,1.80
2023-04-02T18:11:40.781Z,1.55
2023-04-02T18:14:20.995Z,1.80
2023-04-02T18:16:47.655Z,1.90
2023-04-02T18:19:19.084Z,1.90
2023-04-02T18:21:57.495Z,2.00
2023-04-02T18:24:39.151Z,1.77
2023-04-02T18:27:10.134Z,1.90
2023-04-02T18:29:46.587Z,2.10
2023-04-02T18:32:46.933Z,1.70
2023-04-02T18:35:28.878Z,1.90
2023-04-02T18:38:07.836Z,1.80
2023-04-02T18:40:50.012Z,1.75
2023-04-02T18:43:28.866Z,1.70
2023-04-02T18:46:00.360Z,2.00
2023-04-02T18:48:48.238Z,1.67
2023-04-02T18:51:23.239Z,1.58
2023-04-02T18:54:13.156Z,1.75
2023-04-02T18:56:40.564Z,1.80
2023-04-02T18:59:31.497Z,1.90
2023-04-02T19:01:58.951Z,1.70
2023-04-02T19:04:28.785Z,1.80
2023-04-02T19:07:03.482Z,1.80
2023-04-02T19:09:40.395Z,1.83
2023-04-02T19:12:16.034Z,2.08
2023-04-02T19:14:42.657Z,2.20
2023-04-02T19:17:30.472Z,2.10
2023-04-02T19:20:09.013Z,2.50
2023-04-02T19:22:50.764Z,2.17
2023-04-02T19:25:38.463Z,2.40
2023-04-02T19:28:19.794Z,2.50
2023-04-02T19:30:59.351Z,2.10
2023-04-02T19:33:41.221Z,1.95
2023-04-02T19:36:32.533Z,2.15
2023-04-02T19:39:05.098Z,2.20
2023-04-02T19:41:39.307Z,2.10
2023-04-02T19:44:11.226Z,2.15
2023-04-02T19:46:38.770Z,2.13
2023-04-02T19:49:16.965Z,2.03
2023-04-02T19:51:44.171Z,1.88
2023-04-02T19:54:11.019Z,1.90
2023-04-02T19:56:37.947Z,1.92
2023-04-02T19:59:16.988Z,1.90
2023-04-02T20:01:45.003Z,2.17
2023-04-02T20:04:11.654Z,2.28
2023-04-02T20:06:38.395Z,2.30
2023-04-02T20:09:05.075Z,2.10
2023-04-02T20:11:31.743Z,2.10
2023-04-02T20:13:58.413Z,2.08
2023-04-02T20:16:25.131Z,2.13
2023-04-02T20:18:52.722Z,2.10
2023-04-02T20:21:19.445Z,2.08
2023-04-02T20:23:46.093Z,2.17
2023-04-02T20:26:13.154Z,2.30
2023-04-02T20:28:39.911Z,2.30
2023-04-02T20:31:12.277Z,2.33
2023-04-02T20:33:39.561Z,2.40
2023-04-02T20:36:13.131Z,2.40
2023-04-02T20:38:39.876Z,2.13
2023-04-02T20:41:07.259Z,2.47
2023-04-02T20:43:34.554Z,2.40
2023-04-02T20:46:08.333Z,2.20
2023-04-02T20:48:37.631Z,1.98
2023-04-02T20:51:06.502Z,2.45
2023-04-02T20:53:34.955Z,2.10
2023-04-02T20:56:05.535Z,2.20
2023-04-02T20:58:32.756Z,2.22
2023-04-02T21:01:26.699Z,1.80
2023-04-02T21:03:58.097Z,1.80
2023-04-02T21:06:26.450Z,2.25
2023-04-02T21:08:53.369Z,2.20
2023-04-02T21:11:21.984Z,2.08
2023-04-02T21:13:49.476Z,2.00
2023-04-02T21:16:19.538Z,1.88
2023-04-02T21:18:47.223Z,2.10
2023-04-02T21:21:15.084Z,2.08
2023-04-02T21:23:43.021Z,1.90
2023-04-02T21:26:12.451Z,2.20
2023-04-02T21:28:39.362Z,1.95
2023-04-02T21:31:21.028Z,1.90
2023-04-02T21:33:50.521Z,2.20
2023-04-02T21:36:39.399Z,1.90
2023-04-02T21:39:08.507Z,2.00
2023-04-02T21:41:40.606Z,2.10
2023-04-02T21:44:08.450Z,2.13
2023-04-02T21:46:42.735Z,2.10
2023-04-02T21:49:11.143Z,2.10
2023-04-02T21:51:39.339Z,2.13
2023-04-02T21:54:06.475Z,2.10
2023-04-02T21:56:35.637Z,1.90
2023-04-02T21:59:02.861Z,1.95
2023-04-02T22:01:31.963Z,2.20
2023-04-02T22:04:00.913Z,2.00
2023-04-02T22:06:29.775Z,2.10
2023-04-02T22:08:59.080Z,2.10
2023-04-02T22:11:31.326Z,2.10
2023-04-02T22:13:58.845Z,1.90
2023-04-02T22:16:30.109Z,1.92
2023-04-02T22:18:58.719Z,1.90
2023-04-02T22:21:26.046Z,1.95
2023-04-02T22:23:53.128Z,2.05
2023-04-02T22:26:21.508Z,1.80
2023-04-02T22:28:48.445Z,2.03
2023-04-02T22:31:20.979Z,2.30
2023-04-02T22:33:48.218Z,1.70
2023-04-02T22:36:16.282Z,2.00
2023-04-02T22:38:43.349Z,1.88
2023-04-02T22:41:14.817Z,2.10
2023-04-02T22:43:43.958Z,1.98
2023-04-02T22:46:12.651Z,2.20
2023-04-02T22:48:39.981Z,2.08
2023-04-02T22:51:07.847Z,2.10
2023-04-02T22:53:35.332Z,2.10
2023-04-02T22:56:14.975Z,1.95
2023-04-02T22:58:42.045Z,1.77
2023-04-02T23:01:10.185Z,2.10
2023-04-02T23:03:36.831Z,2.08
2023-04-02T23:06:07.257Z,1.90
2023-04-02T23:08:35.269Z,1.90
2023-04-02T23:11:10.527Z,2.10
2023-04-02T23:13:38.657Z,2.00
2023-04-02T23:16:07.608Z,2.10
2023-04-02T23:18:35.600Z,2.08
2023-04-02T23:21:03.221Z,2.08
2023-04-02T23:23:29.999Z,2.00
2023-04-02T23:26:21.793Z,1.90
2023-04-02T23:28:49.357Z,1.88
2023-04-02T23:31:18.126Z,1.90
2023-04-02T23:33:44.803Z,2.00
2023-04-02T23:36:16.396Z,1.80
2023-04-02T23:38:43.106Z,1.90
2023-04-02T23:41:14.088Z,2.03
2023-04-02T23:43:40.868Z,2.00
2023-04-02T23:46:07.594Z,2.20
2023-04-02T23:48:34.246Z,8.07
2023-04-02T23:51:00.887Z,6.55
2023-04-02T23:53:27.552Z,4.30
2023-04-02T23:55:54.184Z,3.70
2023-04-02T23:58:20.917Z,3.33
